الصفحة الرئيسية
METAR-TAF:

METAR-TAF

مطار :

قاعدة سيدي أحمد الجوية

بنزرت, تونس

دائرة عرض: 37-15N, خط طول: 009-48E, ارتفاع: 5 متر

مراقبة الطقس الحالي

تاريخ ووقت الإصدار 30 دقيقة قبل الساعة 04:00UTC
ريح 5 عقدة من الشرق/الشمال الشرقي
درجة الحرارة 14°درجة مئوية
الرطوبة 88%
ضغط 1017 hPa
الرؤية 10 كم أو أكثر
الغيوم لا تقل 1500 م ولا وجود لمزنة ركامية السحاب الأسود

METAR: DTTB 290400Z 06005KT CAVOK 14/12 Q1017

زمن: 05:30 (04:30 UTC)

توقعات

تاريخ ووقت الإصدار 1ساعة و 30 دقيقة قبل الساعة 03:00UTC
التوقعات صالحة من29 الساعة 04 UTC إلى 29 الساعة 13 UTC
ريح 2 عقدة من الغرب/الجنوب الغربي
الرؤية 10 كم أو أكثر
الغيوم لا تقل 1500 م ولا وجود لمزنة ركامية السحاب الأسود

TAF: DTTB 290300Z 2904/2913 24002KT CAVOK

أرصاد الطقس والتوقعات من أكثر من 4000 مطار (تقارير الطقس للمطار METAR والتنبؤ بالطقس بالمطارTAF).

المحطات المتاحة هي النقط الصفراء والحمراء على الخريطة.

حرك المؤشر فوق النقطة لمعرفة اسم المحطة.

ثم انقر لمعرفة أرصاد وتوقعات الطقس.

لتغيير الخارطة: اضغط على الأزرار الخضراء مع رمز الصليب الأسود للتكبير. على الزر الأخضر مع شرطة للتصغير، أو على الأسهم الخضراء للخرائط المجاورة.


METAR-TAF: